Time;durP1;ratioP1;P1;durP2;ratioP2;P2;SDS_P1;SDS_P2;PMS_P1;PMS_P2;Temp;Humidity;BMP_temperature;BMP_pressure;BME280_temperature;BME280_humidity;BME280_pressure;Samples;Min_cycle;Max_cycle;Signal;HPM_P1;HPM_P2
2021/08/21 00:02:20;;;;;;;8.35;5.28;;;;;;;;;;4958672;28;20270;-81
2021/08/21 00:04:47;;;;;;;9.35;4.63;;;;;;;;;;4963558;28;20028;-79
2021/08/21 00:07:12;;;;;;;6.65;4.50;;;;;;;;;;4959277;28;20437;-79
2021/08/21 00:09:38;;;;;;;6.82;4.60;;;;;;;;;;4957879;28;20110;-80
2021/08/21 00:12:04;;;;;;;7.03;4.43;;;;;;;;;;4960522;28;20027;-80
2021/08/21 00:14:29;;;;;;;7.47;5.20;;;;;;;;;;4964354;28;20583;-80
2021/08/21 00:16:55;;;;;;;7.03;5.03;;;;;;;;;;4959735;28;20026;-80
2021/08/21 00:19:20;;;;;;;9.55;4.60;;;;;;;;;;4963797;28;20259;-81
2021/08/21 00:21:48;;;;;;;8.02;4.93;;;;;;;;;;4961780;28;20423;-81
2021/08/21 00:24:13;;;;;;;10.15;4.78;;;;;;;;;;4950574;28;20703;-81
2021/08/21 00:26:38;;;;;;;9.67;4.80;;;;;;;;;;4961535;28;20027;-80
2021/08/21 00:29:04;;;;;;;7.35;4.88;;;;;;;;;;4964939;28;20822;-81
2021/08/21 00:31:29;;;;;;;10.15;5.10;;;;;;;;;;4960913;28;20050;-80
2021/08/21 00:33:55;;;;;;;9.33;4.73;;;;;;;;;;4963809;28;20015;-81
2021/08/21 00:36:20;;;;;;;9.23;4.88;;;;;;;;;;4962223;28;20326;-81
2021/08/21 00:38:45;;;;;;;8.80;4.97;;;;;;;;;;4963269;28;20097;-81
2021/08/21 00:41:11;;;;;;;8.10;5.30;;;;;;;;;;4956321;28;20019;-80
2021/08/21 00:43:37;;;;;;;8.70;4.78;;;;;;;;;;4967044;28;20278;-80
2021/08/21 00:46:02;;;;;;;9.15;4.97;;;;;;;;;;4961215;28;20389;-80
2021/08/21 00:48:28;;;;;;;10.50;5.20;;;;;;;;;;4963904;28;20011;-80
2021/08/21 00:50:53;;;;;;;8.57;5.10;;;;;;;;;;4960961;28;20015;-80
2021/08/21 00:53:19;;;;;;;7.80;5.20;;;;;;;;;;4958157;28;20710;-81
2021/08/21 00:55:46;;;;;;;9.38;5.68;;;;;;;;;;4960184;28;20154;-80
2021/08/21 00:58:12;;;;;;;7.75;5.50;;;;;;;;;;4955545;28;20541;-81
2021/08/21 01:00:37;;;;;;;7.80;4.30;;;;;;;;;;4964865;28;20041;-80
2021/08/21 01:03:03;;;;;;;8.77;4.73;;;;;;;;;;4964468;28;20165;-80
2021/08/21 01:05:28;;;;;;;8.38;4.30;;;;;;;;;;4966472;28;20318;-80
2021/08/21 01:07:53;;;;;;;7.60;4.85;;;;;;;;;;4955359;28;20023;-80
2021/08/21 01:10:19;;;;;;;9.20;4.93;;;;;;;;;;4960943;28;20019;-81
2021/08/21 01:12:47;;;;;;;7.75;4.80;;;;;;;;;;4961918;28;20026;-81
2021/08/21 01:15:12;;;;;;;7.78;4.95;;;;;;;;;;4959048;28;20591;-81
2021/08/21 01:17:38;;;;;;;8.45;4.70;;;;;;;;;;4972873;28;20077;-81
2021/08/21 01:20:04;;;;;;;6.25;4.40;;;;;;;;;;4964665;28;20023;-80
2021/08/21 01:22:29;;;;;;;7.28;4.88;;;;;;;;;;4953722;28;20818;-80
2021/08/21 01:24:55;;;;;;;8.17;5.20;;;;;;;;;;4957934;28;20054;-80
2021/08/21 01:27:22;;;;;;;8.57;5.32;;;;;;;;;;4951193;28;20258;-80
2021/08/21 01:29:47;;;;;;;7.93;4.97;;;;;;;;;;4953542;28;20027;-81
2021/08/21 01:32:13;;;;;;;7.47;4.78;;;;;;;;;;4959486;28;20528;-80
2021/08/21 01:34:38;;;;;;;7.63;4.97;;;;;;;;;;4960256;28;20039;-80
2021/08/21 01:37:03;;;;;;;6.85;5.25;;;;;;;;;;4960505;28;20027;-80
2021/08/21 01:39:29;;;;;;;8.95;5.50;;;;;;;;;;4959002;28;20031;-80
2021/08/21 01:41:54;;;;;;;8.85;5.30;;;;;;;;;;4962169;28;20074;-80
2021/08/21 01:44:19;;;;;;;7.97;5.60;;;;;;;;;;4951522;28;20110;-80
2021/08/21 01:46:48;;;;;;;7.72;5.43;;;;;;;;;;4954091;28;20266;-80
2021/08/21 01:49:15;;;;;;;6.63;5.30;;;;;;;;;;4961440;28;20299;-81
2021/08/21 01:51:41;;;;;;;8.27;5.65;;;;;;;;;;4951422;28;20582;-81
2021/08/21 01:54:06;;;;;;;7.32;5.20;;;;;;;;;;4967736;28;20377;-81
2021/08/21 01:56:48;;;;;;;12.63;5.97;;;;;;;;;;4955493;28;20031;-80
2021/08/21 01:59:25;;;;;;;10.25;5.45;;;;;;;;;;4953729;28;20388;-80
2021/08/21 02:01:51;;;;;;;9.85;5.78;;;;;;;;;;4959501;28;20382;-80
2021/08/21 02:04:17;;;;;;;8.60;5.47;;;;;;;;;;4962725;28;20087;-81
2021/08/21 02:06:42;;;;;;;11.60;5.03;;;;;;;;;;4965712;28;20363;-81
2021/08/21 02:09:08;;;;;;;7.17;5.13;;;;;;;;;;4963389;28;20038;-80
2021/08/21 02:11:33;;;;;;;9.98;6.07;;;;;;;;;;4960243;28;20852;-80
2021/08/21 02:13:59;;;;;;;6.68;5.45;;;;;;;;;;4957354;28;20041;-80
2021/08/21 02:16:24;;;;;;;8.85;5.30;;;;;;;;;;4964590;28;20042;-81
2021/08/21 02:18:49;;;;;;;10.87;5.90;;;;;;;;;;4954287;28;20027;-81
2021/08/21 02:21:17;;;;;;;12.90;5.50;;;;;;;;;;4954775;28;20266;-81
2021/08/21 02:23:43;;;;;;;9.07;5.50;;;;;;;;;;4952341;28;20590;-80
2021/08/21 02:26:08;;;;;;;8.57;5.63;;;;;;;;;;4956640;28;20030;-81
2021/08/21 02:28:34;;;;;;;11.75;5.65;;;;;;;;;;4957637;28;20545;-80
2021/08/21 02:30:59;;;;;;;8.75;5.57;;;;;;;;;;4958110;28;20107;-81
2021/08/21 02:33:24;;;;;;;7.37;5.37;;;;;;;;;;4957899;28;20055;-81
2021/08/21 02:35:49;;;;;;;11.97;5.60;;;;;;;;;;4956723;28;20266;-80
2021/08/21 02:38:15;;;;;;;9.23;5.00;;;;;;;;;;4958795;28;20306;-80
2021/08/21 02:40:40;;;;;;;9.43;6.03;;;;;;;;;;4957986;28;20262;-81
2021/08/21 02:43:05;;;;;;;7.88;6.07;;;;;;;;;;4958036;28;20263;-81
2021/08/21 02:45:31;;;;;;;7.75;5.03;;;;;;;;;;4955629;28;20027;-80
2021/08/21 02:47:56;;;;;;;9.55;5.65;;;;;;;;;;4958640;28;20022;-80
2021/08/21 02:50:21;;;;;;;8.77;5.53;;;;;;;;;;4957165;28;20110;-80
2021/08/21 02:52:49;;;;;;;10.07;5.65;;;;;;;;;;4955527;28;20516;-80
2021/08/21 02:55:14;;;;;;;7.97;5.20;;;;;;;;;;4958256;28;20351;-80
2021/08/21 02:57:40;;;;;;;8.00;5.15;;;;;;;;;;4955694;28;20134;-81
2021/08/21 03:00:05;;;;;;;10.27;5.83;;;;;;;;;;4960761;28;20068;-80
2021/08/21 03:02:31;;;;;;;11.32;5.63;;;;;;;;;;4955305;28;20270;-81
2021/08/21 03:04:56;;;;;;;9.67;5.40;;;;;;;;;;4959280;28;20031;-81
2021/08/21 03:07:21;;;;;;;9.40;5.50;;;;;;;;;;4956946;28;20275;-79
2021/08/21 03:09:46;;;;;;;9.17;5.63;;;;;;;;;;4960317;28;20274;-81
2021/08/21 03:12:12;;;;;;;10.83;6.10;;;;;;;;;;4956929;28;20322;-80
2021/08/21 03:14:37;;;;;;;9.20;5.53;;;;;;;;;;4957578;28;21126;-80
2021/08/21 03:17:03;;;;;;;8.18;5.63;;;;;;;;;;4963617;28;20117;-80
2021/08/21 03:19:28;;;;;;;9.70;6.20;;;;;;;;;;4956891;28;20070;-80
2021/08/21 03:21:53;;;;;;;6.93;5.50;;;;;;;;;;4960700;28;20030;-80
2021/08/21 03:24:19;;;;;;;10.03;6.03;;;;;;;;;;4963063;28;20283;-81
2021/08/21 03:26:44;;;;;;;10.50;5.80;;;;;;;;;;4952526;28;20263;-81
2021/08/21 03:29:09;;;;;;;10.15;5.93;;;;;;;;;;4962586;28;20506;-81
2021/08/21 03:31:34;;;;;;;10.18;6.15;;;;;;;;;;4956147;28;20023;-80
2021/08/21 03:34:00;;;;;;;8.43;5.73;;;;;;;;;;4961785;28;20031;-81
2021/08/21 03:36:26;;;;;;;7.83;6.07;;;;;;;;;;4956270;28;20423;-81
2021/08/21 03:38:51;;;;;;;10.18;6.10;;;;;;;;;;4963557;28;20654;-80
2021/08/21 03:41:16;;;;;;;6.93;5.33;;;;;;;;;;4957130;28;20031;-80
2021/08/21 03:43:42;;;;;;;8.87;5.77;;;;;;;;;;4956883;28;20282;-80
2021/08/21 03:46:07;;;;;;;10.77;5.57;;;;;;;;;;4961905;28;20254;-80
2021/08/21 03:48:33;;;;;;;8.43;5.28;;;;;;;;;;4960998;28;20026;-81
2021/08/21 03:50:58;;;;;;;11.13;5.38;;;;;;;;;;4959121;28;20051;-82
2021/08/21 03:53:23;;;;;;;8.80;5.93;;;;;;;;;;4961642;28;20023;-80
2021/08/21 03:55:49;;;;;;;8.90;6.43;;;;;;;;;;4960764;28;20042;-80
2021/08/21 03:58:15;;;;;;;20.02;16.98;;;;;;;;;;4957302;28;20051;-80
2021/08/21 04:00:43;;;;;;;25.88;21.27;;;;;;;;;;4968104;28;20533;-80
2021/08/21 04:03:09;;;;;;;10.90;7.13;;;;;;;;;;4969144;28;20256;-80
2021/08/21 04:05:34;;;;;;;8.23;6.28;;;;;;;;;;4962706;28;20381;-80
2021/08/21 04:08:00;;;;;;;7.97;5.57;;;;;;;;;;4965585;28;20034;-80
2021/08/21 04:10:25;;;;;;;7.78;5.80;;;;;;;;;;4960257;28;20027;-81
2021/08/21 04:12:51;;;;;;;11.35;6.35;;;;;;;;;;4965676;28;20051;-82
2021/08/21 04:15:16;;;;;;;8.40;5.78;;;;;;;;;;4965189;28;20035;-81
2021/08/21 04:17:42;;;;;;;9.27;6.00;;;;;;;;;;4963465;28;20470;-80
2021/08/21 04:20:07;;;;;;;8.90;6.13;;;;;;;;;;4958814;28;20090;-80
2021/08/21 04:22:32;;;;;;;8.55;6.05;;;;;;;;;;4965195;28;20281;-80
2021/08/21 04:24:58;;;;;;;8.93;6.03;;;;;;;;;;4961250;28;20363;-80
2021/08/21 04:27:23;;;;;;;9.33;5.87;;;;;;;;;;4960649;28;20018;-81
2021/08/21 04:29:49;;;;;;;13.45;6.95;;;;;;;;;;4959662;28;20031;-81
2021/08/21 04:32:14;;;;;;;8.48;5.63;;;;;;;;;;4959745;28;20026;-81
2021/08/21 04:34:39;;;;;;;7.57;5.70;;;;;;;;;;4961120;28;20035;-80
2021/08/21 04:37:05;;;;;;;15.55;11.70;;;;;;;;;;4963990;28;20792;-81
2021/08/21 04:39:30;;;;;;;19.80;17.02;;;;;;;;;;4959901;28;20019;-80
2021/08/21 04:41:56;;;;;;;7.18;5.47;;;;;;;;;;4957693;28;20106;-80
2021/08/21 04:44:21;;;;;;;10.68;6.05;;;;;;;;;;4956963;28;20207;-80
2021/08/21 04:46:46;;;;;;;7.93;5.77;;;;;;;;;;4963164;28;20038;-80
2021/08/21 04:49:11;;;;;;;8.77;5.80;;;;;;;;;;4960515;28;20027;-80
2021/08/21 04:51:36;;;;;;;9.98;6.93;;;;;;;;;;4962906;28;20023;-81
2021/08/21 04:54:02;;;;;;;8.48;6.00;;;;;;;;;;4961545;28;20107;-80
2021/08/21 04:56:27;;;;;;;9.30;5.53;;;;;;;;;;4959914;28;20030;-80
2021/08/21 04:58:52;;;;;;;8.07;5.33;;;;;;;;;;4955881;28;20036;-81
2021/08/21 05:01:18;;;;;;;9.93;5.70;;;;;;;;;;4955441;28;20274;-81
2021/08/21 05:03:43;;;;;;;9.27;5.72;;;;;;;;;;4959313;28;20474;-81
2021/08/21 05:06:09;;;;;;;10.07;6.40;;;;;;;;;;4955852;28;20033;-81
2021/08/21 05:08:34;;;;;;;7.10;5.32;;;;;;;;;;4967782;28;20266;-81
2021/08/21 05:10:59;;;;;;;8.65;5.63;;;;;;;;;;4959515;28;20051;-80
2021/08/21 05:13:25;;;;;;;8.87;6.00;;;;;;;;;;4967598;28;20019;-86
2021/08/21 05:15:53;;;;;;;9.73;5.82;;;;;;;;;;4965220;28;20361;-90
2021/08/21 05:18:26;;;;;;;10.68;6.50;;;;;;;;;;4969307;28;20063;-87
2021/08/21 05:20:53;;;;;;;8.73;5.70;;;;;;;;;;4965352;28;20718;-85
2021/08/21 05:23:18;;;;;;;12.95;8.02;;;;;;;;;;4965062;28;20026;-86
2021/08/21 05:25:46;;;;;;;11.82;9.48;;;;;;;;;;4964148;28;20478;-86
2021/08/21 05:28:12;;;;;;;9.88;6.78;;;;;;;;;;4961520;28;20045;-86
2021/08/21 05:30:39;;;;;;;11.38;6.30;;;;;;;;;;4958486;28;20357;-85
2021/08/21 05:33:08;;;;;;;8.38;5.88;;;;;;;;;;4955142;28;20015;-83
2021/08/21 05:35:34;;;;;;;8.48;5.88;;;;;;;;;;4963658;28;20106;-80
2021/08/21 05:37:59;;;;;;;9.77;5.70;;;;;;;;;;4963722;28;20027;-79
2021/08/21 05:40:24;;;;;;;8.32;5.50;;;;;;;;;;4956534;28;20085;-79
2021/08/21 05:42:50;;;;;;;9.38;5.57;;;;;;;;;;4954087;28;20144;-78
2021/08/21 05:45:16;;;;;;;10.40;5.47;;;;;;;;;;4958433;28;20030;-79
2021/08/21 05:47:41;;;;;;;10.77;5.55;;;;;;;;;;4961583;28;20023;-80
2021/08/21 05:50:07;;;;;;;10.75;5.70;;;;;;;;;;4962305;28;20055;-79
2021/08/21 05:52:32;;;;;;;8.05;5.85;;;;;;;;;;4956126;28;20023;-79
2021/08/21 05:54:57;;;;;;;9.13;6.38;;;;;;;;;;4956864;28;20015;-79
2021/08/21 05:57:23;;;;;;;11.85;8.82;;;;;;;;;;4954000;28;20031;-79
2021/08/21 05:59:48;;;;;;;11.63;8.77;;;;;;;;;;4958952;28;20066;-79
2021/08/21 06:02:13;;;;;;;12.40;6.00;;;;;;;;;;4957943;28;20037;-80
2021/08/21 06:04:39;;;;;;;7.90;5.50;;;;;;;;;;4955514;28;20109;-77
2021/08/21 06:07:04;;;;;;;8.13;6.20;;;;;;;;;;4953203;28;20017;-78
2021/08/21 06:09:29;;;;;;;8.90;5.57;;;;;;;;;;4966346;28;20062;-78
2021/08/21 06:11:55;;;;;;;9.40;5.32;;;;;;;;;;4963579;28;20023;-79
2021/08/21 06:14:20;;;;;;;7.63;5.40;;;;;;;;;;4956473;28;20034;-80
2021/08/21 06:16:46;;;;;;;9.00;6.07;;;;;;;;;;4960843;28;20042;-78
2021/08/21 06:19:11;;;;;;;8.80;5.25;;;;;;;;;;4959160;28;20035;-81
2021/08/21 06:21:37;;;;;;;9.15;6.22;;;;;;;;;;4961302;28;20027;-78
2021/08/21 06:24:02;;;;;;;9.73;5.05;;;;;;;;;;4960085;28;20071;-80
2021/08/21 06:26:28;;;;;;;9.60;6.50;;;;;;;;;;4959568;28;20015;-81
2021/08/21 06:28:54;;;;;;;8.23;5.95;;;;;;;;;;4957551;28;20370;-81
2021/08/21 06:31:19;;;;;;;7.75;5.65;;;;;;;;;;4959530;28;20027;-82
2021/08/21 06:33:44;;;;;;;9.95;5.97;;;;;;;;;;4965247;28;20367;-84
2021/08/21 06:36:10;;;;;;;7.88;5.32;;;;;;;;;;4961544;28;20027;-82
2021/08/21 06:38:35;;;;;;;7.55;5.43;;;;;;;;;;4962481;28;20120;-82
2021/08/21 06:41:00;;;;;;;7.13;5.40;;;;;;;;;;4967336;28;20018;-83
2021/08/21 06:43:26;;;;;;;9.13;5.88;;;;;;;;;;4966534;28;20023;-84
2021/08/21 06:45:51;;;;;;;9.50;5.63;;;;;;;;;;4963719;28;20034;-84
2021/08/21 06:48:17;;;;;;;13.85;9.63;;;;;;;;;;4965224;28;20030;-84
2021/08/21 06:50:43;;;;;;;13.40;10.33;;;;;;;;;;4959419;28;20397;-82
2021/08/21 06:53:09;;;;;;;10.20;6.30;;;;;;;;;;4959339;28;20414;-81
2021/08/21 06:55:34;;;;;;;8.85;5.13;;;;;;;;;;4965180;28;20022;-79
2021/08/21 06:58:00;;;;;;;8.45;5.35;;;;;;;;;;4966573;28;20520;-78
2021/08/21 07:00:37;;;;;;;8.93;5.70;;;;;;;;;;4959921;28;20031;-85
2021/08/21 07:03:06;;;;;;;7.32;5.13;;;;;;;;;;4962623;28;20329;-84
2021/08/21 07:05:31;;;;;;;7.88;4.78;;;;;;;;;;4957416;28;20039;-84
2021/08/21 07:07:57;;;;;;;8.32;5.13;;;;;;;;;;4962735;28;20631;-86
2021/08/21 07:10:22;;;;;;;7.10;4.85;;;;;;;;;;4946940;28;20019;-83
2021/08/21 07:12:48;;;;;;;8.10;5.32;;;;;;;;;;4965395;28;20029;-84
2021/08/21 07:15:13;;;;;;;10.48;5.47;;;;;;;;;;4956817;28;20125;-78
2021/08/21 07:17:39;;;;;;;9.88;6.30;;;;;;;;;;4955501;28;20055;-80
2021/08/21 07:20:05;;;;;;;7.60;5.55;;;;;;;;;;4963356;28;20602;-79
2021/08/21 07:22:30;;;;;;;7.63;5.50;;;;;;;;;;4965842;28;20755;-80
2021/08/21 07:24:55;;;;;;;9.40;5.22;;;;;;;;;;4961935;28;20493;-79
2021/08/21 07:27:20;;;;;;;9.77;4.73;;;;;;;;;;4965813;28;20011;-78
2021/08/21 07:29:46;;;;;;;8.90;5.40;;;;;;;;;;4966740;28;20034;-80
2021/08/21 07:32:11;;;;;;;6.13;4.53;;;;;;;;;;4964512;28;20114;-80
2021/08/21 07:34:38;;;;;;;6.93;4.73;;;;;;;;;;4965774;28;20046;-80
2021/08/21 07:37:03;;;;;;;8.07;5.13;;;;;;;;;;4963015;28;20273;-80
2021/08/21 07:39:28;;;;;;;8.85;6.10;;;;;;;;;;4969589;28;20024;-80
2021/08/21 07:41:54;;;;;;;10.43;5.22;;;;;;;;;;4962849;28;20533;-79
2021/08/21 07:44:19;;;;;;;8.10;5.07;;;;;;;;;;4970472;28;20106;-79
2021/08/21 07:46:45;;;;;;;8.88;4.80;;;;;;;;;;4958801;28;20050;-79
2021/08/21 07:49:10;;;;;;;5.77;4.30;;;;;;;;;;4964216;28;20015;-80
2021/08/21 07:51:37;;;;;;;7.57;4.30;;;;;;;;;;4955752;28;21054;-80
2021/08/21 07:54:02;;;;;;;9.20;5.07;;;;;;;;;;4956311;28;20051;-79
2021/08/21 07:56:27;;;;;;;7.82;4.57;;;;;;;;;;4960980;28;20410;-80
2021/08/21 07:58:53;;;;;;;6.20;4.23;;;;;;;;;;4960288;28;20523;-80
2021/08/21 08:01:18;;;;;;;8.23;5.00;;;;;;;;;;4964463;28;20064;-80
2021/08/21 08:03:43;;;;;;;7.80;4.50;;;;;;;;;;4956651;28;20500;-79
2021/08/21 08:06:08;;;;;;;6.07;4.47;;;;;;;;;;4965278;28;20470;-80
2021/08/21 08:08:34;;;;;;;7.77;4.20;;;;;;;;;;4967574;28;20027;-79
2021/08/21 08:10:59;;;;;;;7.53;4.50;;;;;;;;;;4960002;28;20458;-79
2021/08/21 08:13:24;;;;;;;7.60;4.40;;;;;;;;;;4958973;28;20027;-81
2021/08/21 08:15:50;;;;;;;8.43;4.57;;;;;;;;;;4953927;28;20418;-81
2021/08/21 08:18:15;;;;;;;6.18;4.55;;;;;;;;;;4959430;28;20039;-80
2021/08/21 08:20:40;;;;;;;6.18;3.97;;;;;;;;;;4957667;28;20066;-81
2021/08/21 08:23:06;;;;;;;5.07;3.90;;;;;;;;;;4956983;28;20472;-80
2021/08/21 08:25:32;;;;;;;7.78;4.30;;;;;;;;;;4961071;28;20482;-80
2021/08/21 08:27:57;;;;;;;7.53;5.10;;;;;;;;;;4960965;28;20026;-80
2021/08/21 08:30:22;;;;;;;8.00;4.63;;;;;;;;;;4960782;28;20031;-82
2021/08/21 08:32:48;;;;;;;8.27;4.85;;;;;;;;;;4959956;28;20431;-80
2021/08/21 08:35:13;;;;;;;6.78;4.65;;;;;;;;;;4965276;28;20139;-81
2021/08/21 08:37:40;;;;;;;4.35;3.40;;;;;;;;;;4956374;28;20039;-80
2021/08/21 08:40:06;;;;;;;8.40;4.30;;;;;;;;;;4956129;28;20023;-79
2021/08/21 08:42:32;;;;;;;7.10;4.18;;;;;;;;;;4959247;28;20049;-78
2021/08/21 08:44:57;;;;;;;7.43;4.57;;;;;;;;;;4954414;28;20031;-79
2021/08/21 08:47:22;;;;;;;7.50;4.50;;;;;;;;;;4962526;28;20022;-80
2021/08/21 08:49:48;;;;;;;8.20;5.40;;;;;;;;;;4960101;28;20020;-79
2021/08/21 08:52:14;;;;;;;5.00;3.72;;;;;;;;;;4959965;28;20221;-79
2021/08/21 08:54:40;;;;;;;7.38;4.47;;;;;;;;;;4963955;28;20054;-79
2021/08/21 08:57:05;;;;;;;8.90;4.75;;;;;;;;;;4958011;28;20058;-80
2021/08/21 08:59:32;;;;;;;5.67;4.10;;;;;;;;;;4958153;28;20027;-79
2021/08/21 09:01:58;;;;;;;7.78;4.35;;;;;;;;;;4963740;28;20135;-80
2021/08/21 09:04:24;;;;;;;8.50;5.47;;;;;;;;;;4962949;28;20490;-82
2021/08/21 09:06:49;;;;;;;8.88;4.20;;;;;;;;;;4955681;28;20045;-81
2021/08/21 09:09:16;;;;;;;6.15;3.85;;;;;;;;;;4954161;28;20027;-81
2021/08/21 09:11:45;;;;;;;5.63;3.90;;;;;;;;;;4954303;28;20041;-81
2021/08/21 09:14:18;;;;;;;5.95;3.92;;;;;;;;;;4963834;28;20117;-83
2021/08/21 09:16:43;;;;;;;9.43;3.95;;;;;;;;;;4953138;28;20098;-83
2021/08/21 09:19:08;;;;;;;7.43;4.50;;;;;;;;;;4959374;28;20478;-85
2021/08/21 09:21:34;;;;;;;4.47;3.70;;;;;;;;;;4951898;28;20054;-85
2021/08/21 09:23:59;;;;;;;8.43;3.88;;;;;;;;;;4954921;28;20062;-85
2021/08/21 09:26:34;;;;;;;6.65;4.20;;;;;;;;;;4958000;28;20031;-82
2021/08/21 09:29:00;;;;;;;7.93;4.05;;;;;;;;;;4958430;28;20035;-83
2021/08/21 09:31:30;;;;;;;6.50;4.38;;;;;;;;;;4953625;28;20149;-84
2021/08/21 09:33:56;;;;;;;5.68;4.50;;;;;;;;;;4962760;28;20022;-83
2021/08/21 09:36:35;;;;;;;5.80;4.20;;;;;;;;;;4968716;28;20034;-84
2021/08/21 09:39:01;;;;;;;6.10;4.13;;;;;;;;;;4958293;28;20127;-84
2021/08/21 09:41:27;;;;;;;6.97;4.18;;;;;;;;;;4952244;28;20031;-85
2021/08/21 09:44:04;;;;;;;8.88;4.30;;;;;;;;;;4954639;28;20030;-85
2021/08/21 09:46:30;;;;;;;6.63;4.10;;;;;;;;;;4955600;28;20066;-84
2021/08/21 09:49:03;;;;;;;7.18;4.30;;;;;;;;;;4955333;28;20015;-85
2021/08/21 09:51:30;;;;;;;5.50;4.43;;;;;;;;;;4960790;28;20018;-85
2021/08/21 09:54:00;;;;;;;5.38;4.35;;;;;;;;;;4961406;28;20142;-83
2021/08/21 09:56:29;;;;;;;11.13;4.60;;;;;;;;;;4958741;28;20044;-84
2021/08/21 09:58:55;;;;;;;8.00;5.10;;;;;;;;;;4958246;28;20363;-84
2021/08/21 10:01:20;;;;;;;6.90;4.90;;;;;;;;;;4965692;28;20057;-84
2021/08/21 10:03:46;;;;;;;7.38;4.18;;;;;;;;;;4937389;28;20033;-84
2021/08/21 10:06:11;;;;;;;11.32;5.47;;;;;;;;;;4958794;28;20070;-84
2021/08/21 10:08:37;;;;;;;12.77;5.60;;;;;;;;;;4961306;28;20058;-85
2021/08/21 10:11:03;;;;;;;10.45;5.40;;;;;;;;;;4955975;28;20022;-84
2021/08/21 10:13:32;;;;;;;6.97;4.73;;;;;;;;;;4952050;28;20038;-84
2021/08/21 10:15:57;;;;;;;6.60;4.57;;;;;;;;;;4955373;28;20342;-84
2021/08/21 10:18:23;;;;;;;9.60;5.10;;;;;;;;;;4958455;28;20042;-84
2021/08/21 10:20:49;;;;;;;6.70;5.07;;;;;;;;;;4958616;28;20089;-84
2021/08/21 10:23:16;;;;;;;8.20;5.38;;;;;;;;;;4951411;28;20109;-83
2021/08/21 10:25:45;;;;;;;7.18;4.82;;;;;;;;;;4955241;28;20382;-84
2021/08/21 10:28:13;;;;;;;7.40;4.70;;;;;;;;;;4960364;28;20015;-84
2021/08/21 10:30:45;;;;;;;6.10;4.95;;;;;;;;;;4961572;28;20382;-83
2021/08/21 10:33:11;;;;;;;7.00;5.28;;;;;;;;;;4958565;28;20426;-83
2021/08/21 10:35:47;;;;;;;9.50;5.43;;;;;;;;;;4956822;28;20029;-84
2021/08/21 10:38:38;;;;;;;7.85;5.80;;;;;;;;;;4963040;28;20839;-83
2021/08/21 10:41:09;;;;;;;7.80;5.55;;;;;;;;;;4960991;28;20512;-84
2021/08/21 10:43:49;;;;;;;8.80;6.00;;;;;;;;;;4957693;28;20405;-83
2021/08/21 10:46:34;;;;;;;9.43;5.45;;;;;;;;;;4957783;28;20026;-84
2021/08/21 10:49:00;;;;;;;10.15;5.60;;;;;;;;;;4956722;28;20406;-83
2021/08/21 10:51:42;;;;;;;8.52;5.00;;;;;;;;;;4967464;28;20041;-82
2021/08/21 10:54:25;;;;;;;10.82;5.82;;;;;;;;;;4955236;28;20226;-83
2021/08/21 10:56:52;;;;;;;10.00;5.18;;;;;;;;;;4955221;28;20374;-85
2021/08/21 10:59:36;;;;;;;8.25;5.43;;;;;;;;;;4960064;28;20469;-85
2021/08/21 11:02:19;;;;;;;8.18;5.22;;;;;;;;;;4956164;28;20031;-83
2021/08/21 11:04:45;;;;;;;6.40;5.00;;;;;;;;;;4963864;28;20599;-83
2021/08/21 11:07:33;;;;;;;8.17;5.63;;;;;;;;;;4964293;28;20030;-83
2021/08/21 11:10:15;;;;;;;7.03;5.32;;;;;;;;;;4950734;28;20391;-82
2021/08/21 11:12:43;;;;;;;7.30;5.20;;;;;;;;;;4962759;28;20502;-82
2021/08/21 11:15:15;;;;;;;6.85;5.10;;;;;;;;;;4958046;28;20515;-82
2021/08/21 11:17:40;;;;;;;7.20;5.63;;;;;;;;;;4966880;28;20378;-83
2021/08/21 11:20:24;;;;;;;8.43;5.15;;;;;;;;;;4962900;28;20026;-83
2021/08/21 11:23:08;;;;;;;8.88;5.68;;;;;;;;;;4964034;28;20489;-83
2021/08/21 11:25:37;;;;;;;9.45;5.68;;;;;;;;;;4963316;28;20019;-83
2021/08/21 11:28:06;;;;;;;6.18;5.35;;;;;;;;;;4954823;28;20041;-84
2021/08/21 11:30:31;;;;;;;8.50;5.45;;;;;;;;;;4961585;28;20055;-84
2021/08/21 11:33:02;;;;;;;8.73;5.45;;;;;;;;;;4963379;28;20058;-84
2021/08/21 11:35:48;;;;;;;9.20;5.50;;;;;;;;;;4960395;28;20114;-83
2021/08/21 11:38:15;;;;;;;7.13;5.75;;;;;;;;;;4964889;28;20370;-84
2021/08/21 11:40:47;;;;;;;7.15;5.03;;;;;;;;;;4953814;28;20411;-84
2021/08/21 11:43:25;;;;;;;9.10;5.30;;;;;;;;;;4963918;28;20426;-84
2021/08/21 11:45:50;;;;;;;8.00;5.28;;;;;;;;;;4964567;28;20094;-84
2021/08/21 11:48:17;;;;;;;7.18;5.30;;;;;;;;;;4959392;28;20447;-83
2021/08/21 11:50:43;;;;;;;8.32;5.30;;;;;;;;;;4960422;28;20165;-82
2021/08/21 11:53:09;;;;;;;8.55;4.95;;;;;;;;;;4958052;28;20049;-83
2021/08/21 11:55:35;;;;;;;7.45;5.35;;;;;;;;;;4958305;28;20189;-83
2021/08/21 11:58:01;;;;;;;6.95;5.18;;;;;;;;;;4959506;28;20412;-84
2021/08/21 12:00:28;;;;;;;7.60;5.30;;;;;;;;;;4957687;28;20107;-84
2021/08/21 12:02:56;;;;;;;6.32;5.03;;;;;;;;;;4956042;28;20330;-83
2021/08/21 12:05:29;;;;;;;8.63;5.30;;;;;;;;;;4965644;28;20062;-84
2021/08/21 12:07:55;;;;;;;9.63;4.72;;;;;;;;;;4955807;28;20027;-83
2021/08/21 12:10:21;;;;;;;8.90;4.70;;;;;;;;;;4962239;28;20028;-83
2021/08/21 12:12:53;;;;;;;7.68;4.82;;;;;;;;;;4958374;28;20031;-84
2021/08/21 12:15:19;;;;;;;7.57;4.72;;;;;;;;;;4958462;28;20050;-83
2021/08/21 12:17:45;;;;;;;12.63;5.10;;;;;;;;;;4957806;28;20388;-83
2021/08/21 12:20:10;;;;;;;8.10;4.68;;;;;;;;;;4955061;28;20106;-84
2021/08/21 12:22:36;;;;;;;9.98;5.00;;;;;;;;;;4959834;28;20042;-84
2021/08/21 12:25:04;;;;;;;9.10;5.00;;;;;;;;;;4956708;28;20391;-83
2021/08/21 12:27:29;;;;;;;8.23;5.40;;;;;;;;;;4956862;28;20042;-83
2021/08/21 12:30:05;;;;;;;4.53;3.97;;;;;;;;;;4963218;28;20478;-83
2021/08/21 12:32:31;;;;;;;6.18;4.50;;;;;;;;;;4955012;28;20389;-83
2021/08/21 12:35:08;;;;;;;9.82;4.85;;;;;;;;;;4954933;28;20020;-82
2021/08/21 12:37:34;;;;;;;8.18;5.00;;;;;;;;;;4957711;28;20653;-82
2021/08/21 12:40:06;;;;;;;5.88;4.32;;;;;;;;;;4961148;28;20114;-83
2021/08/21 12:42:32;;;;;;;8.13;4.65;;;;;;;;;;4954060;28;20090;-83
2021/08/21 12:44:57;;;;;;;6.82;4.85;;;;;;;;;;4957585;28;20022;-83
2021/08/21 12:47:23;;;;;;;8.05;4.82;;;;;;;;;;4954564;28;20126;-83
2021/08/21 12:49:49;;;;;;;8.05;4.75;;;;;;;;;;4965229;28;20533;-83
2021/08/21 12:52:18;;;;;;;8.13;5.25;;;;;;;;;;4955384;28;20543;-83
2021/08/21 12:54:44;;;;;;;8.10;5.10;;;;;;;;;;4959744;28;20700;-84
2021/08/21 12:57:13;;;;;;;7.07;5.25;;;;;;;;;;4959832;28;20604;-82
2021/08/21 12:59:39;;;;;;;9.93;4.47;;;;;;;;;;4955374;28;20646;-83
2021/08/21 13:02:08;;;;;;;5.93;4.40;;;;;;;;;;4954090;28;20277;-83
2021/08/21 13:04:34;;;;;;;7.38;4.60;;;;;;;;;;4957048;28;20599;-83
2021/08/21 13:07:01;;;;;;;7.03;4.85;;;;;;;;;;4955770;28;20352;-83
2021/08/21 13:09:26;;;;;;;7.38;5.20;;;;;;;;;;4958434;28;20640;-83
2021/08/21 13:11:52;;;;;;;8.00;4.40;;;;;;;;;;4957887;28;20062;-84
2021/08/21 13:14:17;;;;;;;7.65;4.75;;;;;;;;;;4953011;28;20038;-82
2021/08/21 13:16:44;;;;;;;6.82;4.22;;;;;;;;;;4959645;28;20771;-83
2021/08/21 13:19:09;;;;;;;7.68;4.57;;;;;;;;;;4959851;28;20678;-83
2021/08/21 13:21:34;;;;;;;6.53;4.43;;;;;;;;;;4955395;28;20110;-84
2021/08/21 13:23:59;;;;;;;6.13;4.70;;;;;;;;;;4956009;28;20089;-83
2021/08/21 13:26:25;;;;;;;7.63;4.50;;;;;;;;;;4952918;28;20266;-83
2021/08/21 13:28:51;;;;;;;7.47;4.47;;;;;;;;;;4961783;28;20063;-83
2021/08/21 13:31:17;;;;;;;7.55;4.60;;;;;;;;;;4952497;28;20355;-83
2021/08/21 13:33:42;;;;;;;6.25;4.30;;;;;;;;;;4959545;28;20073;-83
2021/08/21 13:36:07;;;;;;;8.23;4.87;;;;;;;;;;4960413;28;20059;-84
2021/08/21 13:38:33;;;;;;;8.15;4.65;;;;;;;;;;4956196;28;20038;-83
2021/08/21 13:40:58;;;;;;;5.70;4.13;;;;;;;;;;4957559;28;20027;-84
2021/08/21 13:43:24;;;;;;;8.98;4.97;;;;;;;;;;4954817;28;20035;-83
2021/08/21 13:45:49;;;;;;;7.53;4.22;;;;;;;;;;4957383;28;20023;-84
2021/08/21 13:48:15;;;;;;;7.28;4.82;;;;;;;;;;4956098;28;20639;-84
2021/08/21 13:50:41;;;;;;;6.60;5.03;;;;;;;;;;4962692;28;20111;-84
2021/08/21 13:53:06;;;;;;;6.28;4.88;;;;;;;;;;4944981;28;20390;-84
2021/08/21 13:55:32;;;;;;;7.33;4.93;;;;;;;;;;4955899;28;20023;-84
2021/08/21 13:57:59;;;;;;;7.80;4.38;;;;;;;;;;4953870;28;20501;-84
2021/08/21 14:00:24;;;;;;;8.25;4.68;;;;;;;;;;4954410;28;20430;-84
2021/08/21 14:02:50;;;;;;;6.80;4.65;;;;;;;;;;4952797;28;20024;-84
2021/08/21 14:05:15;;;;;;;6.50;4.70;;;;;;;;;;4955663;28;20035;-85
2021/08/21 14:07:41;;;;;;;7.47;4.88;;;;;;;;;;4959960;28;20525;-84
2021/08/21 14:10:07;;;;;;;7.63;5.40;;;;;;;;;;4954008;28;20098;-84
2021/08/21 14:12:33;;;;;;;7.47;5.20;;;;;;;;;;4964003;28;20526;-84
2021/08/21 14:15:00;;;;;;;6.83;5.00;;;;;;;;;;4955202;28;20023;-83
2021/08/21 14:17:25;;;;;;;7.05;4.70;;;;;;;;;;4963373;28;20462;-84
2021/08/21 14:19:50;;;;;;;9.00;5.50;;;;;;;;;;4956732;28;20107;-83
2021/08/21 14:22:15;;;;;;;6.80;4.80;;;;;;;;;;4955626;28;20062;-83
2021/08/21 14:24:41;;;;;;;7.87;5.00;;;;;;;;;;4956222;28;20635;-83
2021/08/21 14:27:06;;;;;;;6.00;4.60;;;;;;;;;;4965883;28;20030;-84
2021/08/21 14:29:31;;;;;;;8.50;5.32;;;;;;;;;;4958188;28;20031;-84
2021/08/21 14:31:57;;;;;;;7.10;4.43;;;;;;;;;;4953007;28;20023;-83
2021/08/21 14:34:22;;;;;;;9.45;5.20;;;;;;;;;;4956920;28;20671;-83
2021/08/21 14:36:47;;;;;;;11.18;4.68;;;;;;;;;;4958188;28;20159;-83
2021/08/21 14:39:12;;;;;;;7.17;4.47;;;;;;;;;;4960489;28;20063;-83